LFRS/NTE METAR and TAF weather

Enter ICAO airport designator
Station Type Date Time Source
LFRS METAR 2019/12/08 03:30 UTC NOAA

LFRS 080330Z AUTO 20009KT 4100 -RADZ BR OVC003 11/11 Q1015 BECMG 9999 NSW BKN007 OVC014


Station Type Date Time Source
LFRS Decoded METAR 2019/12/08 03:30 UTC NOAA

Nantes, France (LFRS) 47-10N 001-36W 27M
Dec 07, 2019 - 10:30 PM EST / 2019.12.08 0330 UTC
Wind: from the SSW (200 degrees) at 10 MPH (9 KT):0
Visibility: 2 mile(s):0
Sky conditions: overcast
Weather: light rain, drizzle; mist
Temperature: 51 F (11 C)
Dew Point: 51 F (11 C)
Relative Humidity: 100%
Pressure (altimeter): 29.97 in. Hg (1015 hPa)
ob: LFRS 080330Z AUTO 20009KT 4100 -RADZ BR OVC003 11/11 Q1015 BECMG 9999 NSW BKN007 OVC014
cycle: 3

Station Type Date Time Source
LFRS TAF 2019/12/08 03:54 UTC NOAA

TAF
AMD LFRS 080345Z 0803/0906 21010KT 9999 BKN008
TEMPO 0803/0805 4000 -RA BKN003
TEMPO 0805/0809 21015G25KT 2500 RA BKN003
FM081000 27010KT 9999 BKN020
BECMG 0815/0817 27020G30KT
TEMPO 0819/0906 28025G45KT 2500 SHRAGS BKN006 BKN020CB

Example: see airport list